sensor_id;sensor_type;location;lat;lon;timestamp;temperature;humidity
3699;DHT22;1865;50.918;7.092;2023-04-25T00:00:41;12.80;47.30
3699;DHT22;1865;50.918;7.092;2023-04-25T00:03:07;12.80;47.10
3699;DHT22;1865;50.918;7.092;2023-04-25T00:05:34;12.80;47.60
3699;DHT22;1865;50.918;7.092;2023-04-25T00:08:02;12.80;47.40
3699;DHT22;1865;50.918;7.092;2023-04-25T00:10:28;12.70;47.00
3699;DHT22;1865;50.918;7.092;2023-04-25T00:12:54;12.70;47.50
3699;DHT22;1865;50.918;7.092;2023-04-25T00:15:19;12.70;47.20
3699;DHT22;1865;50.918;7.092;2023-04-25T00:17:45;12.70;47.10
3699;DHT22;1865;50.918;7.092;2023-04-25T00:20:11;12.70;47.10
3699;DHT22;1865;50.918;7.092;2023-04-25T00:22:37;12.70;47.30
3699;DHT22;1865;50.918;7.092;2023-04-25T00:25:04;12.70;46.90
3699;DHT22;1865;50.918;7.092;2023-04-25T00:27:30;12.70;47.20
3699;DHT22;1865;50.918;7.092;2023-04-25T00:29:56;12.60;47.10
3699;DHT22;1865;50.918;7.092;2023-04-25T00:32:21;12.60;47.20
3699;DHT22;1865;50.918;7.092;2023-04-25T00:34:47;12.60;47.30
3699;DHT22;1865;50.918;7.092;2023-04-25T00:37:12;12.50;47.50
3699;DHT22;1865;50.918;7.092;2023-04-25T00:39:38;12.50;48.00
3699;DHT22;1865;50.918;7.092;2023-04-25T00:42:03;12.50;48.00
3699;DHT22;1865;50.918;7.092;2023-04-25T00:44:30;12.40;47.60
3699;DHT22;1865;50.918;7.092;2023-04-25T00:46:57;12.50;47.80
3699;DHT22;1865;50.918;7.092;2023-04-25T00:49:23;12.40;47.60
3699;DHT22;1865;50.918;7.092;2023-04-25T00:51:49;12.40;48.00
3699;DHT22;1865;50.918;7.092;2023-04-25T00:54:14;12.30;47.70
3699;DHT22;1865;50.918;7.092;2023-04-25T00:56:41;12.40;48.00
3699;DHT22;1865;50.918;7.092;2023-04-25T00:59:07;12.30;47.90
3699;DHT22;1865;50.918;7.092;2023-04-25T01:01:34;12.30;48.30
3699;DHT22;1865;50.918;7.092;2023-04-25T01:04:01;12.10;48.00
3699;DHT22;1865;50.918;7.092;2023-04-25T01:06:26;12.10;48.60
3699;DHT22;1865;50.918;7.092;2023-04-25T01:08:53;12.10;49.20
3699;DHT22;1865;50.918;7.092;2023-04-25T01:11:18;12.10;49.20
3699;DHT22;1865;50.918;7.092;2023-04-25T01:13:45;12.00;48.80
3699;DHT22;1865;50.918;7.092;2023-04-25T01:16:10;12.00;48.90
3699;DHT22;1865;50.918;7.092;2023-04-25T01:18:40;12.00;49.10
3699;DHT22;1865;50.918;7.092;2023-04-25T01:21:08;11.90;48.80
3699;DHT22;1865;50.918;7.092;2023-04-25T01:23:35;11.90;49.10
3699;DHT22;1865;50.918;7.092;2023-04-25T01:26:01;11.80;49.30
3699;DHT22;1865;50.918;7.092;2023-04-25T01:28:27;11.70;49.80
3699;DHT22;1865;50.918;7.092;2023-04-25T01:30:53;11.70;49.80
3699;DHT22;1865;50.918;7.092;2023-04-25T01:33:21;11.60;50.50
3699;DHT22;1865;50.918;7.092;2023-04-25T01:35:46;11.50;50.90
3699;DHT22;1865;50.918;7.092;2023-04-25T01:38:13;11.40;50.90
3699;DHT22;1865;50.918;7.092;2023-04-25T01:40:39;11.50;51.00
3699;DHT22;1865;50.918;7.092;2023-04-25T01:43:06;11.60;50.80
3699;DHT22;1865;50.918;7.092;2023-04-25T01:45:31;11.60;50.90
3699;DHT22;1865;50.918;7.092;2023-04-25T01:47:58;11.60;51.30
3699;DHT22;1865;50.918;7.092;2023-04-25T01:50:25;11.70;50.90
3699;DHT22;1865;50.918;7.092;2023-04-25T01:52:50;11.70;50.30
3699;DHT22;1865;50.918;7.092;2023-04-25T01:55:16;11.70;49.90
3699;DHT22;1865;50.918;7.092;2023-04-25T01:57:41;11.80;49.90
3699;DHT22;1865;50.918;7.092;2023-04-25T02:00:08;11.80;49.70
3699;DHT22;1865;50.918;7.092;2023-04-25T02:02:34;11.90;49.40
3699;DHT22;1865;50.918;7.092;2023-04-25T02:05:00;11.90;49.10
3699;DHT22;1865;50.918;7.092;2023-04-25T02:07:26;11.90;49.10
3699;DHT22;1865;50.918;7.092;2023-04-25T02:09:52;11.90;48.60
3699;DHT22;1865;50.918;7.092;2023-04-25T02:12:18;11.70;49.10
3699;DHT22;1865;50.918;7.092;2023-04-25T02:14:43;11.70;49.00
3699;DHT22;1865;50.918;7.092;2023-04-25T02:17:09;11.70;49.10
3699;DHT22;1865;50.918;7.092;2023-04-25T02:19:34;11.80;48.90
3699;DHT22;1865;50.918;7.092;2023-04-25T02:22:00;11.70;48.90
3699;DHT22;1865;50.918;7.092;2023-04-25T02:24:26;11.70;49.20
3699;DHT22;1865;50.918;7.092;2023-04-25T02:26:53;11.70;48.90
3699;DHT22;1865;50.918;7.092;2023-04-25T02:29:20;11.70;49.10
3699;DHT22;1865;50.918;7.092;2023-04-25T02:31:45;11.60;49.30
3699;DHT22;1865;50.918;7.092;2023-04-25T02:34:11;11.70;49.30
3699;DHT22;1865;50.918;7.092;2023-04-25T02:36:36;11.70;49.40
3699;DHT22;1865;50.918;7.092;2023-04-25T02:39:02;11.60;49.50
3699;DHT22;1865;50.918;7.092;2023-04-25T02:41:28;11.60;49.70
3699;DHT22;1865;50.918;7.092;2023-04-25T02:43:54;11.60;49.60
3699;DHT22;1865;50.918;7.092;2023-04-25T02:46:20;11.60;49.60
3699;DHT22;1865;50.918;7.092;2023-04-25T02:48:45;11.70;49.20
3699;DHT22;1865;50.918;7.092;2023-04-25T02:51:11;11.70;49.20
3699;DHT22;1865;50.918;7.092;2023-04-25T02:53:36;11.70;49.20
3699;DHT22;1865;50.918;7.092;2023-04-25T02:56:02;11.70;49.20
3699;DHT22;1865;50.918;7.092;2023-04-25T02:58:28;11.70;49.20
3699;DHT22;1865;50.918;7.092;2023-04-25T03:00:53;11.70;49.10
3699;DHT22;1865;50.918;7.092;2023-04-25T03:03:19;11.70;48.80
3699;DHT22;1865;50.918;7.092;2023-04-25T03:05:50;11.70;48.70
3699;DHT22;1865;50.918;7.092;2023-04-25T03:08:17;11.80;49.00
3699;DHT22;1865;50.918;7.092;2023-04-25T03:10:43;11.70;49.10
3699;DHT22;1865;50.918;7.092;2023-04-25T03:13:09;11.70;49.20
3699;DHT22;1865;50.918;7.092;2023-04-25T03:15:35;11.80;49.30
3699;DHT22;1865;50.918;7.092;2023-04-25T03:18:01;11.70;49.20
3699;DHT22;1865;50.918;7.092;2023-04-25T03:20:27;11.70;49.50
3699;DHT22;1865;50.918;7.092;2023-04-25T03:22:52;11.80;49.10
3699;DHT22;1865;50.918;7.092;2023-04-25T03:25:18;11.80;49.20
3699;DHT22;1865;50.918;7.092;2023-04-25T03:27:43;11.70;49.30
3699;DHT22;1865;50.918;7.092;2023-04-25T03:30:09;11.80;49.70
3699;DHT22;1865;50.918;7.092;2023-04-25T03:32:35;11.80;49.50
3699;DHT22;1865;50.918;7.092;2023-04-25T03:35:01;11.80;49.30
3699;DHT22;1865;50.918;7.092;2023-04-25T03:37:26;11.80;49.30
3699;DHT22;1865;50.918;7.092;2023-04-25T03:39:52;11.80;49.20
3699;DHT22;1865;50.918;7.092;2023-04-25T03:42:17;11.80;49.10
3699;DHT22;1865;50.918;7.092;2023-04-25T03:44:43;11.70;48.90
3699;DHT22;1865;50.918;7.092;2023-04-25T03:47:08;11.70;49.00
3699;DHT22;1865;50.918;7.092;2023-04-25T03:49:34;11.80;48.80
3699;DHT22;1865;50.918;7.092;2023-04-25T03:52:00;11.80;48.90
3699;DHT22;1865;50.918;7.092;2023-04-25T03:54:26;11.80;49.50
3699;DHT22;1865;50.918;7.092;2023-04-25T03:56:51;11.90;49.60
3699;DHT22;1865;50.918;7.092;2023-04-25T03:59:17;11.90;49.20
3699;DHT22;1865;50.918;7.092;2023-04-25T04:01:42;11.90;49.50
3699;DHT22;1865;50.918;7.092;2023-04-25T04:04:08;11.90;49.50
3699;DHT22;1865;50.918;7.092;2023-04-25T04:06:33;11.80;49.50
3699;DHT22;1865;50.918;7.092;2023-04-25T04:08:59;11.80;50.20
3699;DHT22;1865;50.918;7.092;2023-04-25T04:11:25;11.80;50.40
3699;DHT22;1865;50.918;7.092;2023-04-25T04:13:51;11.70;50.40
3699;DHT22;1865;50.918;7.092;2023-04-25T04:16:16;11.60;50.50
3699;DHT22;1865;50.918;7.092;2023-04-25T04:18:42;11.60;50.20
3699;DHT22;1865;50.918;7.092;2023-04-25T04:21:07;11.60;50.50
3699;DHT22;1865;50.918;7.092;2023-04-25T04:23:33;11.70;50.70
3699;DHT22;1865;50.918;7.092;2023-04-25T04:25:59;11.70;50.30
3699;DHT22;1865;50.918;7.092;2023-04-25T04:28:25;11.70;50.10
3699;DHT22;1865;50.918;7.092;2023-04-25T04:30:51;11.80;50.20
3699;DHT22;1865;50.918;7.092;2023-04-25T04:33:17;11.70;50.20
3699;DHT22;1865;50.918;7.092;2023-04-25T04:35:46;11.80;50.20
3699;DHT22;1865;50.918;7.092;2023-04-25T04:38:13;11.80;49.90
3699;DHT22;1865;50.918;7.092;2023-04-25T04:40:41;11.90;49.70
3699;DHT22;1865;50.918;7.092;2023-04-25T04:43:08;12.00;49.90
3699;DHT22;1865;50.918;7.092;2023-04-25T04:45:36;12.00;50.00
3699;DHT22;1865;50.918;7.092;2023-04-25T04:48:05;12.00;49.80
3699;DHT22;1865;50.918;7.092;2023-04-25T04:50:30;11.90;50.30
3699;DHT22;1865;50.918;7.092;2023-04-25T04:52:57;11.90;50.30
3699;DHT22;1865;50.918;7.092;2023-04-25T04:55:23;11.90;50.10
3699;DHT22;1865;50.918;7.092;2023-04-25T04:57:49;11.90;50.50
3699;DHT22;1865;50.918;7.092;2023-04-25T05:00:14;11.80;50.40
3699;DHT22;1865;50.918;7.092;2023-04-25T05:02:40;11.90;50.70
3699;DHT22;1865;50.918;7.092;2023-04-25T05:05:07;11.90;50.60
3699;DHT22;1865;50.918;7.092;2023-04-25T05:07:33;11.90;50.40
3699;DHT22;1865;50.918;7.092;2023-04-25T05:09:59;11.90;50.40
3699;DHT22;1865;50.918;7.092;2023-04-25T05:12:24;12.00;50.50
3699;DHT22;1865;50.918;7.092;2023-04-25T05:14:50;12.10;50.40
3699;DHT22;1865;50.918;7.092;2023-04-25T05:17:15;12.00;50.60
3699;DHT22;1865;50.918;7.092;2023-04-25T05:19:41;12.00;50.20
3699;DHT22;1865;50.918;7.092;2023-04-25T05:22:06;12.00;50.50
3699;DHT22;1865;50.918;7.092;2023-04-25T05:24:32;12.00;50.60
3699;DHT22;1865;50.918;7.092;2023-04-25T05:26:57;11.90;50.50
3699;DHT22;1865;50.918;7.092;2023-04-25T05:29:23;12.00;50.70
3699;DHT22;1865;50.918;7.092;2023-04-25T05:31:49;12.00;50.50
3699;DHT22;1865;50.918;7.092;2023-04-25T05:34:14;11.80;51.40
3699;DHT22;1865;50.918;7.092;2023-04-25T05:36:41;11.90;51.40
3699;DHT22;1865;50.918;7.092;2023-04-25T05:39:07;12.00;51.20
3699;DHT22;1865;50.918;7.092;2023-04-25T05:41:34;12.00;50.90
3699;DHT22;1865;50.918;7.092;2023-04-25T05:43:59;12.00;50.50
3699;DHT22;1865;50.918;7.092;2023-04-25T05:46:25;12.00;50.90
3699;DHT22;1865;50.918;7.092;2023-04-25T05:48:50;12.10;50.10
3699;DHT22;1865;50.918;7.092;2023-04-25T05:51:16;12.20;50.00
3699;DHT22;1865;50.918;7.092;2023-04-25T05:53:43;12.10;49.80
3699;DHT22;1865;50.918;7.092;2023-04-25T05:56:09;12.10;50.40
3699;DHT22;1865;50.918;7.092;2023-04-25T05:58:34;12.10;50.60
3699;DHT22;1865;50.918;7.092;2023-04-25T06:01:00;12.00;50.40
3699;DHT22;1865;50.918;7.092;2023-04-25T06:03:25;12.10;50.10
3699;DHT22;1865;50.918;7.092;2023-04-25T06:05:51;12.00;50.10
3699;DHT22;1865;50.918;7.092;2023-04-25T06:08:16;12.00;51.00
3699;DHT22;1865;50.918;7.092;2023-04-25T06:10:42;12.00;50.30
3699;DHT22;1865;50.918;7.092;2023-04-25T06:13:08;12.00;50.60
3699;DHT22;1865;50.918;7.092;2023-04-25T06:15:33;11.90;50.70
3699;DHT22;1865;50.918;7.092;2023-04-25T06:18:00;12.00;50.10
3699;DHT22;1865;50.918;7.092;2023-04-25T06:20:25;12.00;50.00
3699;DHT22;1865;50.918;7.092;2023-04-25T06:22:51;11.90;49.90
3699;DHT22;1865;50.918;7.092;2023-04-25T06:25:17;12.00;51.40
3699;DHT22;1865;50.918;7.092;2023-04-25T06:27:43;12.10;50.20
3699;DHT22;1865;50.918;7.092;2023-04-25T06:30:08;12.20;49.40
3699;DHT22;1865;50.918;7.092;2023-04-25T06:32:35;12.30;49.70
3699;DHT22;1865;50.918;7.092;2023-04-25T06:35:00;12.50;49.60
3699;DHT22;1865;50.918;7.092;2023-04-25T06:37:26;12.50;48.90
3699;DHT22;1865;50.918;7.092;2023-04-25T06:39:52;12.60;48.40
3699;DHT22;1865;50.918;7.092;2023-04-25T06:42:17;12.70;47.50
3699;DHT22;1865;50.918;7.092;2023-04-25T06:44:43;12.80;47.30
3699;DHT22;1865;50.918;7.092;2023-04-25T06:47:08;12.70;47.50
3699;DHT22;1865;50.918;7.092;2023-04-25T06:49:34;12.90;47.00
3699;DHT22;1865;50.918;7.092;2023-04-25T06:52:00;13.10;47.20
3699;DHT22;1865;50.918;7.092;2023-04-25T06:54:25;13.10;46.30
3699;DHT22;1865;50.918;7.092;2023-04-25T06:56:52;13.20;45.60
3699;DHT22;1865;50.918;7.092;2023-04-25T06:59:18;13.20;45.50
3699;DHT22;1865;50.918;7.092;2023-04-25T07:01:44;13.20;45.20
3699;DHT22;1865;50.918;7.092;2023-04-25T07:04:09;13.10;45.40
3699;DHT22;1865;50.918;7.092;2023-04-25T07:06:35;13.10;45.20
3699;DHT22;1865;50.918;7.092;2023-04-25T07:09:03;13.30;45.00
3699;DHT22;1865;50.918;7.092;2023-04-25T07:11:30;13.40;43.90
3699;DHT22;1865;50.918;7.092;2023-04-25T07:14:16;13.40;44.10
3699;DHT22;1865;50.918;7.092;2023-04-25T07:16:41;13.60;43.70
3699;DHT22;1865;50.918;7.092;2023-04-25T07:19:07;13.60;43.00
3699;DHT22;1865;50.918;7.092;2023-04-25T07:21:32;13.60;43.00
3699;DHT22;1865;50.918;7.092;2023-04-25T07:23:58;13.60;43.20
3699;DHT22;1865;50.918;7.092;2023-04-25T07:26:23;13.70;43.20
3699;DHT22;1865;50.918;7.092;2023-04-25T07:28:49;13.60;43.20
3699;DHT22;1865;50.918;7.092;2023-04-25T07:31:17;13.70;42.80
3699;DHT22;1865;50.918;7.092;2023-04-25T07:33:44;13.70;43.00
3699;DHT22;1865;50.918;7.092;2023-04-25T07:36:10;13.50;42.80
3699;DHT22;1865;50.918;7.092;2023-04-25T07:38:35;13.50;41.70
3699;DHT22;1865;50.918;7.092;2023-04-25T07:41:01;13.40;42.10
3699;DHT22;1865;50.918;7.092;2023-04-25T07:43:27;13.40;42.10
3699;DHT22;1865;50.918;7.092;2023-04-25T07:45:52;13.40;42.80
3699;DHT22;1865;50.918;7.092;2023-04-25T07:48:18;13.50;42.00
3699;DHT22;1865;50.918;7.092;2023-04-25T07:50:44;13.60;41.40
3699;DHT22;1865;50.918;7.092;2023-04-25T07:53:10;13.50;41.90
3699;DHT22;1865;50.918;7.092;2023-04-25T07:55:36;13.50;41.40
3699;DHT22;1865;50.918;7.092;2023-04-25T07:58:08;13.40;40.90
3699;DHT22;1865;50.918;7.092;2023-04-25T08:00:34;13.40;41.20
3699;DHT22;1865;50.918;7.092;2023-04-25T08:03:00;13.40;41.00
3699;DHT22;1865;50.918;7.092;2023-04-25T08:05:25;13.40;40.90
3699;DHT22;1865;50.918;7.092;2023-04-25T08:07:51;13.60;40.50
3699;DHT22;1865;50.918;7.092;2023-04-25T08:10:16;13.70;40.70
3699;DHT22;1865;50.918;7.092;2023-04-25T08:12:42;13.70;40.80
3699;DHT22;1865;50.918;7.092;2023-04-25T08:15:08;13.80;39.70
3699;DHT22;1865;50.918;7.092;2023-04-25T08:17:34;13.80;39.40
3699;DHT22;1865;50.918;7.092;2023-04-25T08:20:00;13.90;40.60
3699;DHT22;1865;50.918;7.092;2023-04-25T08:22:25;14.20;38.80
3699;DHT22;1865;50.918;7.092;2023-04-25T08:24:51;14.60;38.00
3699;DHT22;1865;50.918;7.092;2023-04-25T08:27:18;14.80;36.90
3699;DHT22;1865;50.918;7.092;2023-04-25T08:29:44;14.90;37.20
3699;DHT22;1865;50.918;7.092;2023-04-25T08:32:09;14.80;36.00
3699;DHT22;1865;50.918;7.092;2023-04-25T08:34:35;14.60;34.40
3699;DHT22;1865;50.918;7.092;2023-04-25T08:37:02;14.50;35.40
3699;DHT22;1865;50.918;7.092;2023-04-25T08:39:29;14.70;35.70
3699;DHT22;1865;50.918;7.092;2023-04-25T08:41:55;14.70;34.80
3699;DHT22;1865;50.918;7.092;2023-04-25T08:44:22;14.60;33.90
3699;DHT22;1865;50.918;7.092;2023-04-25T08:46:49;14.50;33.80
3699;DHT22;1865;50.918;7.092;2023-04-25T08:49:18;14.60;33.80
3699;DHT22;1865;50.918;7.092;2023-04-25T08:51:45;14.70;34.30
3699;DHT22;1865;50.918;7.092;2023-04-25T08:54:15;14.70;34.30
3699;DHT22;1865;50.918;7.092;2023-04-25T08:56:44;14.70;34.50
3699;DHT22;1865;50.918;7.092;2023-04-25T08:59:13;14.50;34.60
3699;DHT22;1865;50.918;7.092;2023-04-25T09:01:39;14.40;34.50
3699;DHT22;1865;50.918;7.092;2023-04-25T09:04:05;14.20;35.90
3699;DHT22;1865;50.918;7.092;2023-04-25T09:06:31;14.20;35.30
3699;DHT22;1865;50.918;7.092;2023-04-25T09:09:05;14.10;35.20
3699;DHT22;1865;50.918;7.092;2023-04-25T09:11:31;14.10;35.80
3699;DHT22;1865;50.918;7.092;2023-04-25T09:14:17;14.10;36.30
3699;DHT22;1865;50.918;7.092;2023-04-25T09:19:32;14.20;36.20
3699;DHT22;1865;50.918;7.092;2023-04-25T09:22:01;14.10;36.00
3699;DHT22;1865;50.918;7.092;2023-04-25T09:27:02;13.80;36.20
3699;DHT22;1865;50.918;7.092;2023-04-25T09:29:32;13.70;36.50
3699;DHT22;1865;50.918;7.092;2023-04-25T09:34:46;13.60;37.10
3699;DHT22;1865;50.918;7.092;2023-04-25T09:37:17;13.80;37.20
3699;DHT22;1865;50.918;7.092;2023-04-25T09:39:45;13.90;37.30
3699;DHT22;1865;50.918;7.092;2023-04-25T09:42:12;14.10;37.50
3699;DHT22;1865;50.918;7.092;2023-04-25T09:44:45;14.30;37.20
3699;DHT22;1865;50.918;7.092;2023-04-25T09:47:12;14.50;36.90
3699;DHT22;1865;50.918;7.092;2023-04-25T09:49:42;14.80;36.80
3699;DHT22;1865;50.918;7.092;2023-04-25T09:52:08;14.90;35.50
3699;DHT22;1865;50.918;7.092;2023-04-25T09:54:34;14.90;33.80
3699;DHT22;1865;50.918;7.092;2023-04-25T09:57:10;14.90;34.30
3699;DHT22;1865;50.918;7.092;2023-04-25T09:59:39;14.80;33.80
3699;DHT22;1865;50.918;7.092;2023-04-25T10:02:07;14.90;34.10
3699;DHT22;1865;50.918;7.092;2023-04-25T10:04:34;14.70;33.90
3699;DHT22;1865;50.918;7.092;2023-04-25T10:07:00;14.60;33.80
3699;DHT22;1865;50.918;7.092;2023-04-25T10:09:26;14.50;33.30
3699;DHT22;1865;50.918;7.092;2023-04-25T10:11:55;14.40;33.90
3699;DHT22;1865;50.918;7.092;2023-04-25T10:14:22;14.20;34.40
3699;DHT22;1865;50.918;7.092;2023-04-25T10:16:49;14.10;34.70
3699;DHT22;1865;50.918;7.092;2023-04-25T10:19:19;14.10;34.60
3699;DHT22;1865;50.918;7.092;2023-04-25T10:24:23;14.10;34.80
3699;DHT22;1865;50.918;7.092;2023-04-25T10:26:50;14.20;33.80
3699;DHT22;1865;50.918;7.092;2023-04-25T10:29:24;14.20;34.10
3699;DHT22;1865;50.918;7.092;2023-04-25T10:31:49;14.20;34.40
3699;DHT22;1865;50.918;7.092;2023-04-25T10:34:16;14.10;34.40
3699;DHT22;1865;50.918;7.092;2023-04-25T10:36:42;14.20;34.00
3699;DHT22;1865;50.918;7.092;2023-04-25T10:39:22;14.20;33.60
3699;DHT22;1865;50.918;7.092;2023-04-25T10:41:56;14.10;34.00
3699;DHT22;1865;50.918;7.092;2023-04-25T10:44:22;14.00;33.10
3699;DHT22;1865;50.918;7.092;2023-04-25T10:46:48;14.10;33.60
3699;DHT22;1865;50.918;7.092;2023-04-25T10:49:33;14.20;32.90
3699;DHT22;1865;50.918;7.092;2023-04-25T10:52:26;14.20;33.10
3699;DHT22;1865;50.918;7.092;2023-04-25T10:54:54;14.50;33.30
3699;DHT22;1865;50.918;7.092;2023-04-25T10:57:46;14.90;31.90
3699;DHT22;1865;50.918;7.092;2023-04-25T11:00:19;15.30;29.70
3699;DHT22;1865;50.918;7.092;2023-04-25T11:02:52;15.10;27.90
3699;DHT22;1865;50.918;7.092;2023-04-25T11:05:35;14.80;27.90
3699;DHT22;1865;50.918;7.092;2023-04-25T11:08:02;14.50;27.80
3699;DHT22;1865;50.918;7.092;2023-04-25T11:10:30;14.30;28.70
3699;DHT22;1865;50.918;7.092;2023-04-25T11:12:57;14.00;29.80
3699;DHT22;1865;50.918;7.092;2023-04-25T11:15:24;13.90;31.00
3699;DHT22;1865;50.918;7.092;2023-04-25T11:17:54;13.90;31.20
3699;DHT22;1865;50.918;7.092;2023-04-25T11:20:21;13.80;32.70
3699;DHT22;1865;50.918;7.092;2023-04-25T11:22:48;13.90;32.70
3699;DHT22;1865;50.918;7.092;2023-04-25T11:25:15;14.00;33.00
3699;DHT22;1865;50.918;7.092;2023-04-25T11:27:54;14.20;32.70
3699;DHT22;1865;50.918;7.092;2023-04-25T11:30:21;14.30;32.10
3699;DHT22;1865;50.918;7.092;2023-04-25T11:32:47;14.40;32.00
3699;DHT22;1865;50.918;7.092;2023-04-25T11:35:13;14.50;31.40
3699;DHT22;1865;50.918;7.092;2023-04-25T11:37:39;14.60;31.30
3699;DHT22;1865;50.918;7.092;2023-04-25T11:40:06;14.70;30.90
3699;DHT22;1865;50.918;7.092;2023-04-25T11:42:32;14.60;30.30
3699;DHT22;1865;50.918;7.092;2023-04-25T11:44:59;14.80;30.90
3699;DHT22;1865;50.918;7.092;2023-04-25T11:47:30;15.00;30.00
3699;DHT22;1865;50.918;7.092;2023-04-25T11:49:58;15.10;30.10
3699;DHT22;1865;50.918;7.092;2023-04-25T11:52:23;15.10;29.40
3699;DHT22;1865;50.918;7.092;2023-04-25T11:54:49;15.00;29.50
3699;DHT22;1865;50.918;7.092;2023-04-25T11:57:14;15.00;30.00
3699;DHT22;1865;50.918;7.092;2023-04-25T11:59:40;15.00;29.40
3699;DHT22;1865;50.918;7.092;2023-04-25T12:02:06;15.20;29.30
3699;DHT22;1865;50.918;7.092;2023-04-25T12:04:32;15.30;30.20
3699;DHT22;1865;50.918;7.092;2023-04-25T12:06:58;15.30;28.60
3699;DHT22;1865;50.918;7.092;2023-04-25T12:09:32;15.30;29.00
3699;DHT22;1865;50.918;7.092;2023-04-25T12:12:00;15.40;28.10
3699;DHT22;1865;50.918;7.092;2023-04-25T12:14:30;15.30;29.10
3699;DHT22;1865;50.918;7.092;2023-04-25T12:16:58;15.40;29.40
3699;DHT22;1865;50.918;7.092;2023-04-25T12:19:24;15.70;28.60
3699;DHT22;1865;50.918;7.092;2023-04-25T12:21:50;15.90;26.50
3699;DHT22;1865;50.918;7.092;2023-04-25T12:24:18;16.00;28.70
3699;DHT22;1865;50.918;7.092;2023-04-25T12:29:23;16.50;27.30
3699;DHT22;1865;50.918;7.092;2023-04-25T12:31:51;16.60;25.50
3699;DHT22;1865;50.918;7.092;2023-04-25T12:34:21;16.40;26.20
3699;DHT22;1865;50.918;7.092;2023-04-25T12:36:47;16.60;25.50
3699;DHT22;1865;50.918;7.092;2023-04-25T12:39:20;16.50;24.80
3699;DHT22;1865;50.918;7.092;2023-04-25T12:41:48;16.50;25.30
3699;DHT22;1865;50.918;7.092;2023-04-25T12:44:14;16.50;25.10
3699;DHT22;1865;50.918;7.092;2023-04-25T12:46:40;16.50;25.50
3699;DHT22;1865;50.918;7.092;2023-04-25T12:49:07;16.40;26.10
3699;DHT22;1865;50.918;7.092;2023-04-25T12:51:34;16.30;24.70
3699;DHT22;1865;50.918;7.092;2023-04-25T12:54:00;16.20;25.50
3699;DHT22;1865;50.918;7.092;2023-04-25T12:56:26;16.00;24.90
3699;DHT22;1865;50.918;7.092;2023-04-25T12:58:53;15.80;25.50
3699;DHT22;1865;50.918;7.092;2023-04-25T13:01:19;15.90;26.00
3699;DHT22;1865;50.918;7.092;2023-04-25T13:03:44;15.90;25.30
3699;DHT22;1865;50.918;7.092;2023-04-25T13:06:10;15.90;25.20
3699;DHT22;1865;50.918;7.092;2023-04-25T13:08:36;15.80;25.70
3699;DHT22;1865;50.918;7.092;2023-04-25T13:11:03;15.90;25.90
3699;DHT22;1865;50.918;7.092;2023-04-25T13:13:29;16.00;26.80
3699;DHT22;1865;50.918;7.092;2023-04-25T13:15:57;16.10;26.20
3699;DHT22;1865;50.918;7.092;2023-04-25T13:18:22;16.10;26.80
3699;DHT22;1865;50.918;7.092;2023-04-25T13:20:52;16.10;26.80
3699;DHT22;1865;50.918;7.092;2023-04-25T13:23:18;16.10;26.10
3699;DHT22;1865;50.918;7.092;2023-04-25T13:25:44;16.30;26.00
3699;DHT22;1865;50.918;7.092;2023-04-25T13:28:09;16.90;26.00
3699;DHT22;1865;50.918;7.092;2023-04-25T13:30:35;17.30;24.10
3699;DHT22;1865;50.918;7.092;2023-04-25T13:33:00;17.50;23.20
3699;DHT22;1865;50.918;7.092;2023-04-25T13:35:29;17.80;22.90
3699;DHT22;1865;50.918;7.092;2023-04-25T13:37:55;17.90;22.00
3699;DHT22;1865;50.918;7.092;2023-04-25T13:40:20;18.00;22.70
3699;DHT22;1865;50.918;7.092;2023-04-25T13:42:46;18.30;20.90
3699;DHT22;1865;50.918;7.092;2023-04-25T13:45:12;18.60;21.00
3699;DHT22;1865;50.918;7.092;2023-04-25T13:47:37;18.60;21.00
3699;DHT22;1865;50.918;7.092;2023-04-25T13:50:04;18.80;20.70
3699;DHT22;1865;50.918;7.092;2023-04-25T13:52:31;19.20;21.70
3699;DHT22;1865;50.918;7.092;2023-04-25T13:54:57;19.30;21.10
3699;DHT22;1865;50.918;7.092;2023-04-25T13:57:23;19.00;21.30
3699;DHT22;1865;50.918;7.092;2023-04-25T13:59:48;18.50;21.50
3699;DHT22;1865;50.918;7.092;2023-04-25T14:02:14;18.10;21.40
3699;DHT22;1865;50.918;7.092;2023-04-25T14:04:40;17.70;21.70
3699;DHT22;1865;50.918;7.092;2023-04-25T14:07:06;17.50;23.40
3699;DHT22;1865;50.918;7.092;2023-04-25T14:09:31;17.50;23.70
3699;DHT22;1865;50.918;7.092;2023-04-25T14:11:57;17.90;25.60
3699;DHT22;1865;50.918;7.092;2023-04-25T14:14:23;18.30;24.40
3699;DHT22;1865;50.918;7.092;2023-04-25T14:16:49;18.70;23.80
3699;DHT22;1865;50.918;7.092;2023-04-25T14:19:16;18.80;24.80
3699;DHT22;1865;50.918;7.092;2023-04-25T14:21:42;18.90;25.20
3699;DHT22;1865;50.918;7.092;2023-04-25T14:24:08;18.80;25.10
3699;DHT22;1865;50.918;7.092;2023-04-25T14:26:34;18.60;24.60
3699;DHT22;1865;50.918;7.092;2023-04-25T14:29:01;18.60;25.30
3699;DHT22;1865;50.918;7.092;2023-04-25T14:31:26;18.70;25.00
3699;DHT22;1865;50.918;7.092;2023-04-25T14:33:53;18.80;24.60
3699;DHT22;1865;50.918;7.092;2023-04-25T14:36:18;18.70;23.40
3699;DHT22;1865;50.918;7.092;2023-04-25T14:38:44;18.60;23.40
3699;DHT22;1865;50.918;7.092;2023-04-25T14:41:09;18.50;23.80
3699;DHT22;1865;50.918;7.092;2023-04-25T14:43:36;18.40;24.40
3699;DHT22;1865;50.918;7.092;2023-04-25T14:46:02;18.30;25.30
3699;DHT22;1865;50.918;7.092;2023-04-25T14:48:28;18.50;24.80
3699;DHT22;1865;50.918;7.092;2023-04-25T14:50:54;18.40;25.40
3699;DHT22;1865;50.918;7.092;2023-04-25T14:53:21;18.40;25.10
3699;DHT22;1865;50.918;7.092;2023-04-25T14:55:47;18.10;25.40
3699;DHT22;1865;50.918;7.092;2023-04-25T14:58:14;18.00;26.00
3699;DHT22;1865;50.918;7.092;2023-04-25T15:00:39;18.00;24.60
3699;DHT22;1865;50.918;7.092;2023-04-25T15:03:05;18.10;24.70
3699;DHT22;1865;50.918;7.092;2023-04-25T15:05:33;18.00;23.40
3699;DHT22;1865;50.918;7.092;2023-04-25T15:07:59;17.90;22.50
3699;DHT22;1865;50.918;7.092;2023-04-25T15:10:25;17.80;22.50
3699;DHT22;1865;50.918;7.092;2023-04-25T15:12:51;17.70;23.30
3699;DHT22;1865;50.918;7.092;2023-04-25T15:15:18;17.40;22.70
3699;DHT22;1865;50.918;7.092;2023-04-25T15:17:44;17.10;22.60
3699;DHT22;1865;50.918;7.092;2023-04-25T15:20:11;17.10;23.60
3699;DHT22;1865;50.918;7.092;2023-04-25T15:22:39;16.80;24.10
3699;DHT22;1865;50.918;7.092;2023-04-25T15:25:06;16.70;25.30
3699;DHT22;1865;50.918;7.092;2023-04-25T15:27:33;16.70;25.30
3699;DHT22;1865;50.918;7.092;2023-04-25T15:29:59;16.50;25.90
3699;DHT22;1865;50.918;7.092;2023-04-25T15:32:25;16.50;25.90
3699;DHT22;1865;50.918;7.092;2023-04-25T15:34:51;16.60;25.60
3699;DHT22;1865;50.918;7.092;2023-04-25T15:37:16;16.80;25.50
3699;DHT22;1865;50.918;7.092;2023-04-25T15:39:44;16.80;24.90
3699;DHT22;1865;50.918;7.092;2023-04-25T15:42:09;16.70;24.70
3699;DHT22;1865;50.918;7.092;2023-04-25T15:44:35;16.70;24.80
3699;DHT22;1865;50.918;7.092;2023-04-25T15:47:00;16.50;24.70
3699;DHT22;1865;50.918;7.092;2023-04-25T15:49:26;16.60;24.50
3699;DHT22;1865;50.918;7.092;2023-04-25T15:51:52;16.50;25.00
3699;DHT22;1865;50.918;7.092;2023-04-25T15:54:18;16.80;25.50
3699;DHT22;1865;50.918;7.092;2023-04-25T15:56:43;17.30;25.00
3699;DHT22;1865;50.918;7.092;2023-04-25T15:59:10;17.50;24.30
3699;DHT22;1865;50.918;7.092;2023-04-25T16:01:36;17.70;23.40
3699;DHT22;1865;50.918;7.092;2023-04-25T16:04:02;17.60;23.50
3699;DHT22;1865;50.918;7.092;2023-04-25T16:06:27;17.40;23.60
3699;DHT22;1865;50.918;7.092;2023-04-25T16:08:53;17.00;24.50
3699;DHT22;1865;50.918;7.092;2023-04-25T16:11:19;16.70;25.00